createdAt,value
2023-04-07T00:00:54.696Z,42.84
2023-04-07T00:01:54.739Z,46.79
2023-04-07T00:02:54.776Z,44.02
2023-04-07T00:03:54.846Z,41.75
2023-04-07T00:04:54.684Z,44.40
2023-04-07T00:05:54.670Z,44.60
2023-04-07T00:06:54.610Z,46.47
2023-04-07T00:07:56.986Z,43.84
2023-04-07T00:08:54.625Z,44.05
2023-04-07T00:09:54.588Z,44.69
2023-04-07T00:10:54.579Z,42.11
2023-04-07T00:11:54.557Z,41.36
2023-04-07T00:12:54.565Z,41.01
2023-04-07T00:13:54.943Z,39.94
2023-04-07T00:14:54.525Z,40.79
2023-04-07T00:15:54.567Z,41.80
2023-04-07T00:16:54.511Z,41.92
2023-04-07T00:17:54.542Z,42.24
2023-04-07T00:18:54.485Z,41.09
2023-04-07T00:19:54.476Z,42.17
2023-04-07T00:20:54.477Z,46.34
2023-04-07T00:21:54.464Z,41.94
2023-04-07T00:22:54.449Z,41.39
2023-04-07T00:23:54.616Z,41.17
2023-04-07T00:24:54.418Z,40.48
2023-04-07T00:25:54.424Z,41.40
2023-04-07T00:26:54.402Z,40.43
2023-04-07T00:27:54.392Z,40.29
2023-04-07T00:28:54.383Z,41.27
2023-04-07T00:29:54.369Z,42.65
2023-04-07T00:30:54.443Z,45.86
2023-04-07T00:31:54.369Z,42.42
2023-04-07T00:32:54.403Z,44.09
2023-04-07T00:33:54.533Z,44.19
2023-04-07T00:34:54.320Z,43.57
2023-04-07T00:35:54.442Z,42.33
2023-04-07T00:36:54.303Z,43.54
2023-04-07T00:37:54.297Z,45.56
2023-04-07T00:38:54.276Z,45.80
2023-04-07T00:39:54.271Z,45.45
2023-04-07T00:40:54.260Z,46.98
2023-04-07T00:41:54.251Z,46.32
2023-04-07T00:42:54.239Z,47.34
2023-04-07T00:43:54.323Z,48.05
2023-04-07T00:44:54.212Z,48.84
2023-04-07T00:45:54.224Z,48.49
2023-04-07T00:46:54.269Z,48.79
2023-04-07T00:47:54.204Z,48.97
2023-04-07T00:48:54.166Z,50.66
2023-04-07T00:49:54.162Z,50.33
2023-04-07T00:50:54.164Z,49.69
2023-04-07T00:51:54.150Z,51.41
2023-04-07T00:52:54.130Z,48.66
2023-04-07T00:53:54.331Z,48.72
2023-04-07T00:54:54.098Z,48.22
2023-04-07T00:55:54.115Z,50.77
2023-04-07T00:56:54.115Z,47.58
2023-04-07T00:57:54.074Z,47.35
2023-04-07T00:58:54.065Z,46.95
2023-04-07T00:59:54.063Z,47.59
2023-04-07T01:00:54.047Z,47.66
2023-04-07T01:01:54.120Z,48.32
2023-04-07T01:02:54.171Z,49.63
2023-04-07T01:03:54.454Z,49.74
2023-04-07T01:04:54.047Z,48.86
2023-04-07T01:05:54.016Z,50.29
2023-04-07T01:06:53.970Z,49.51
2023-04-07T01:07:53.970Z,46.94
2023-04-07T01:08:53.951Z,46.16
2023-04-07T01:09:53.950Z,47.47
2023-04-07T01:10:53.943Z,47.98
2023-04-07T01:11:53.919Z,49.22
2023-04-07T01:12:53.911Z,44.46
2023-04-07T01:13:54.181Z,44.80
2023-04-07T01:14:53.899Z,44.63
2023-04-07T01:15:53.906Z,44.25
2023-04-07T01:16:55.160Z,44.62
2023-04-07T01:17:53.894Z,48.09
2023-04-07T01:18:53.861Z,46.01
2023-04-07T01:19:53.841Z,45.38
2023-04-07T01:20:53.837Z,45.42
2023-04-07T01:21:53.817Z,46.70
2023-04-07T01:22:53.799Z,46.31
2023-04-07T01:23:54.029Z,47.50
2023-04-07T01:24:53.805Z,46.63
2023-04-07T01:25:53.800Z,46.71
2023-04-07T01:26:53.756Z,47.21
2023-04-07T01:27:53.769Z,45.35
2023-04-07T01:28:53.740Z,45.32
2023-04-07T01:29:53.727Z,44.12
2023-04-07T01:30:53.714Z,44.67
2023-04-07T01:31:53.782Z,44.42
2023-04-07T01:32:53.741Z,44.64
2023-04-07T01:33:53.760Z,44.08
2023-04-07T01:34:53.679Z,43.53
2023-04-07T01:35:53.661Z,42.81
2023-04-07T01:36:53.713Z,42.97
2023-04-07T01:37:53.641Z,43.39
2023-04-07T01:38:53.631Z,43.80
2023-04-07T01:39:53.616Z,44.39
2023-04-07T01:40:53.624Z,42.41
2023-04-07T01:41:53.626Z,43.68
2023-04-07T01:42:53.590Z,42.39
2023-04-07T01:43:53.714Z,43.28
2023-04-07T01:44:53.563Z,42.00
2023-04-07T01:45:53.557Z,41.53
2023-04-07T01:46:53.606Z,41.01
2023-04-07T01:47:53.585Z,41.39
2023-04-07T01:48:53.513Z,42.50
2023-04-07T01:49:53.515Z,41.72
2023-04-07T01:50:53.492Z,41.95
2023-04-07T01:51:53.500Z,41.88
2023-04-07T01:52:53.494Z,42.19
2023-04-07T01:53:53.656Z,42.79
2023-04-07T01:54:53.456Z,43.09
2023-04-07T01:55:53.460Z,44.70
2023-04-07T01:56:53.484Z,45.19
2023-04-07T01:57:53.446Z,44.47
2023-04-07T01:58:53.413Z,45.16
2023-04-07T01:59:53.433Z,45.39
2023-04-07T02:00:53.418Z,45.11
2023-04-07T02:01:53.498Z,45.16
2023-04-07T02:02:53.495Z,44.20
2023-04-07T02:03:53.857Z,45.00
2023-04-07T02:04:53.357Z,45.39
2023-04-07T02:05:53.350Z,56.06
2023-04-07T02:06:53.343Z,46.70
2023-04-07T02:07:53.327Z,44.47
2023-04-07T02:08:53.320Z,43.99
2023-04-07T02:09:53.304Z,44.69
2023-04-07T02:10:53.292Z,45.53
2023-04-07T02:11:53.293Z,44.27
2023-04-07T02:12:53.270Z,44.76
2023-04-07T02:13:53.494Z,44.95
2023-04-07T02:14:53.241Z,44.22
2023-04-07T02:15:53.291Z,45.19
2023-04-07T02:16:53.300Z,50.07
2023-04-07T02:17:53.239Z,43.81
2023-04-07T02:18:53.206Z,44.89
2023-04-07T02:19:53.200Z,43.66
2023-04-07T02:20:53.180Z,44.23
2023-04-07T02:21:53.209Z,46.31
2023-04-07T02:22:53.177Z,44.05
2023-04-07T02:23:53.203Z,42.74
2023-04-07T02:24:53.142Z,43.53
2023-04-07T02:25:53.135Z,43.61
2023-04-07T02:26:53.151Z,42.54
2023-04-07T02:27:53.127Z,43.61
2023-04-07T02:28:53.100Z,42.53
2023-04-07T02:29:53.096Z,42.49
2023-04-07T02:30:53.088Z,44.06
2023-04-07T02:31:53.176Z,44.17
2023-04-07T02:32:53.133Z,42.92
2023-04-07T02:33:53.139Z,42.92
2023-04-07T02:34:53.064Z,41.86
2023-04-07T02:35:53.040Z,43.37
2023-04-07T02:36:53.053Z,42.97
2023-04-07T02:37:53.007Z,43.31
2023-04-07T02:38:53.000Z,46.21
2023-04-07T02:39:52.983Z,44.72
2023-04-07T02:40:52.974Z,41.93
2023-04-07T02:41:52.981Z,42.11
2023-04-07T02:42:52.950Z,43.79
2023-04-07T02:43:53.245Z,43.83
2023-04-07T02:44:52.940Z,42.79
2023-04-07T02:45:52.960Z,43.17
2023-04-07T02:46:52.938Z,43.00
2023-04-07T02:47:52.998Z,47.90
2023-04-07T02:48:52.881Z,44.34
2023-04-07T02:49:54.045Z,41.26
2023-04-07T02:50:54.036Z,42.30
2023-04-07T02:51:54.000Z,41.92
2023-04-07T02:52:53.975Z,41.22
2023-04-07T02:53:54.246Z,43.29
2023-04-07T02:54:53.973Z,42.22
2023-04-07T02:55:53.975Z,42.62
2023-04-07T02:56:53.960Z,44.28
2023-04-07T02:57:53.940Z,43.33
2023-04-07T02:58:53.940Z,43.56
2023-04-07T02:59:53.911Z,41.39
2023-04-07T03:00:53.921Z,41.43
2023-04-07T03:01:54.109Z,41.52
2023-04-07T03:02:54.083Z,42.83
2023-04-07T03:03:54.139Z,43.76
2023-04-07T03:04:53.896Z,43.00
2023-04-07T03:05:53.874Z,43.23
2023-04-07T03:06:53.878Z,42.69
2023-04-07T03:07:53.868Z,44.57
2023-04-07T03:08:53.859Z,44.27
2023-04-07T03:09:53.878Z,41.38
2023-04-07T03:10:53.856Z,42.32
2023-04-07T03:11:53.821Z,49.19
2023-04-07T03:12:53.800Z,44.76
2023-04-07T03:13:53.989Z,43.30
2023-04-07T03:14:53.813Z,44.03
2023-04-07T03:15:53.793Z,42.36
2023-04-07T03:16:53.837Z,40.82
2023-04-07T03:17:53.809Z,46.61
2023-04-07T03:18:53.763Z,43.66
2023-04-07T03:19:53.750Z,40.73
2023-04-07T03:20:53.746Z,41.37
2023-04-07T03:21:53.775Z,41.82
2023-04-07T03:22:53.708Z,41.39
2023-04-07T03:23:54.005Z,45.09
2023-04-07T03:24:53.722Z,41.87
2023-04-07T03:25:53.684Z,40.96
2023-04-07T03:26:53.689Z,42.81
2023-04-07T03:27:53.671Z,41.97
2023-04-07T03:28:53.654Z,42.60
2023-04-07T03:29:53.668Z,44.96
2023-04-07T03:30:53.657Z,43.38
2023-04-07T03:31:53.691Z,43.83
2023-04-07T03:32:53.716Z,47.78
2023-04-07T03:33:53.926Z,45.27
2023-04-07T03:34:53.611Z,47.65
2023-04-07T03:35:53.604Z,48.61
2023-04-07T03:36:53.609Z,43.12
2023-04-07T03:37:53.567Z,42.98
2023-04-07T03:38:53.573Z,42.70
2023-04-07T03:39:53.554Z,42.23
2023-04-07T03:40:53.548Z,43.97
2023-04-07T03:41:53.549Z,44.63
2023-04-07T03:42:53.538Z,44.13
2023-04-07T03:43:53.722Z,43.81
2023-04-07T03:44:53.488Z,45.27
2023-04-07T03:45:53.512Z,49.29
2023-04-07T03:46:53.532Z,45.55
2023-04-07T03:47:53.545Z,44.95
2023-04-07T03:48:53.468Z,45.07
2023-04-07T03:49:53.457Z,44.56
2023-04-07T03:50:53.448Z,44.88
2023-04-07T03:51:53.454Z,45.26
2023-04-07T03:52:53.412Z,46.23
2023-04-07T03:53:53.635Z,46.34
2023-04-07T03:54:53.423Z,46.65
2023-04-07T03:55:53.398Z,47.09
2023-04-07T03:56:53.440Z,48.50
2023-04-07T03:57:53.363Z,46.78
2023-04-07T03:58:53.404Z,46.70
2023-04-07T03:59:53.365Z,46.76
2023-04-07T04:00:53.366Z,49.93
2023-04-07T04:01:53.420Z,51.67
2023-04-07T04:02:53.390Z,53.34
2023-04-07T04:03:53.611Z,52.26
2023-04-07T04:04:53.484Z,51.67
2023-04-07T04:05:53.304Z,53.12
2023-04-07T04:06:53.313Z,53.82
2023-04-07T04:07:53.261Z,55.08
2023-04-07T04:08:53.259Z,53.82
2023-04-07T04:09:53.235Z,55.07
2023-04-07T04:10:53.254Z,52.90
2023-04-07T04:11:53.258Z,53.85
2023-04-07T04:12:53.239Z,53.57
2023-04-07T04:13:53.395Z,53.07
2023-04-07T04:14:53.201Z,52.13
2023-04-07T04:15:53.243Z,51.77
2023-04-07T04:16:53.210Z,52.00
2023-04-07T04:17:53.234Z,52.59
2023-04-07T04:18:53.185Z,53.90
2023-04-07T04:19:53.164Z,54.18
2023-04-07T04:20:53.166Z,52.86
2023-04-07T04:21:53.149Z,49.83
2023-04-07T04:22:53.166Z,47.26
2023-04-07T04:23:53.471Z,51.06
2023-04-07T04:24:53.112Z,51.43
2023-04-07T04:25:53.084Z,49.30
2023-04-07T04:26:53.098Z,48.57
2023-04-07T04:27:53.099Z,51.24
2023-04-07T04:28:53.065Z,50.47
2023-04-07T04:29:53.072Z,48.79
2023-04-07T04:30:53.057Z,49.93
2023-04-07T04:31:53.035Z,48.59
2023-04-07T04:32:53.094Z,48.65
2023-04-07T04:33:53.356Z,48.85
2023-04-07T04:34:53.012Z,48.71
2023-04-07T04:35:53.015Z,51.80
2023-04-07T04:36:53.016Z,49.03
2023-04-07T04:37:52.997Z,48.13
2023-04-07T04:38:52.960Z,45.47
2023-04-07T04:39:52.973Z,45.34
2023-04-07T04:40:52.940Z,46.12
2023-04-07T04:41:52.923Z,45.56
2023-04-07T04:42:52.977Z,48.58
2023-04-07T04:43:52.936Z,47.33
2023-04-07T04:44:52.911Z,47.50
2023-04-07T04:45:52.887Z,46.33
2023-04-07T04:46:52.925Z,45.44
2023-04-07T04:47:52.957Z,45.78
2023-04-07T04:48:52.918Z,45.25
2023-04-07T04:49:52.863Z,43.38
2023-04-07T04:50:52.857Z,45.48
2023-04-07T04:51:52.860Z,48.00
2023-04-07T04:52:52.883Z,45.07
2023-04-07T04:53:53.002Z,44.74
2023-04-07T04:54:52.800Z,43.65
2023-04-07T04:55:52.800Z,43.42
2023-04-07T04:56:52.796Z,46.04
2023-04-07T04:57:52.810Z,47.21
2023-04-07T04:58:52.795Z,47.26
2023-04-07T04:59:52.774Z,48.88
2023-04-07T05:00:52.798Z,48.64
2023-04-07T05:01:53.971Z,47.75
2023-04-07T05:02:52.951Z,47.15
2023-04-07T05:03:53.200Z,47.66
2023-04-07T05:04:52.822Z,46.28
2023-04-07T05:05:52.721Z,53.18
2023-04-07T05:06:52.679Z,47.17
2023-04-07T05:07:52.697Z,44.70
2023-04-07T05:08:52.697Z,42.86
2023-04-07T05:09:52.677Z,42.67
2023-04-07T05:10:52.660Z,43.43
2023-04-07T05:11:52.643Z,43.50
2023-04-07T05:12:52.658Z,43.45
2023-04-07T05:13:52.879Z,45.30
2023-04-07T05:14:52.615Z,44.46
2023-04-07T05:15:52.682Z,46.42
2023-04-07T05:16:52.597Z,46.48
2023-04-07T05:17:52.608Z,45.55
2023-04-07T05:18:52.568Z,46.68
2023-04-07T05:19:52.586Z,45.77
2023-04-07T05:20:52.538Z,44.49
2023-04-07T05:21:52.565Z,45.39
2023-04-07T05:22:52.572Z,45.63
2023-04-07T05:23:52.852Z,46.31
2023-04-07T05:24:52.507Z,48.78
2023-04-07T05:25:52.480Z,50.18
2023-04-07T05:26:52.508Z,44.39
2023-04-07T05:27:52.502Z,45.45
2023-04-07T05:28:52.474Z,44.68
2023-04-07T05:29:52.456Z,47.07
2023-04-07T05:30:52.452Z,43.97
2023-04-07T05:31:52.488Z,44.32
2023-04-07T05:32:53.489Z,44.21
2023-04-07T05:33:52.853Z,48.19
2023-04-07T05:34:52.421Z,44.46
2023-04-07T05:35:52.426Z,44.47
2023-04-07T05:36:52.390Z,44.09
2023-04-07T05:37:52.373Z,51.04
2023-04-07T05:38:53.346Z,46.14
2023-04-07T05:39:52.350Z,45.21
2023-04-07T05:40:52.391Z,46.77
2023-04-07T05:41:52.361Z,46.76
2023-04-07T05:42:52.355Z,43.76
2023-04-07T05:43:52.562Z,48.15
2023-04-07T05:44:52.280Z,46.43
2023-04-07T05:45:52.331Z,42.53
2023-04-07T05:46:52.286Z,43.13
2023-04-07T05:47:52.357Z,45.29
2023-04-07T05:48:52.273Z,46.71
2023-04-07T05:49:52.257Z,42.36
2023-04-07T05:50:52.242Z,43.48
2023-04-07T05:51:53.243Z,48.32
2023-04-07T05:52:52.237Z,47.95
2023-04-07T05:53:52.544Z,43.54
2023-04-07T05:54:52.219Z,51.73
2023-04-07T05:55:52.194Z,43.49
2023-04-07T05:56:52.187Z,46.36
2023-04-07T05:57:52.197Z,47.15
2023-04-07T05:58:52.176Z,48.79
2023-04-07T05:59:52.148Z,50.41
2023-04-07T06:00:52.145Z,47.77
2023-04-07T06:01:52.229Z,48.79
2023-04-07T06:02:52.269Z,54.87
2023-04-07T06:03:52.404Z,52.82
2023-04-07T06:04:52.137Z,53.90
2023-04-07T06:05:52.119Z,52.59
2023-04-07T06:06:52.094Z,49.17
2023-04-07T06:07:52.107Z,51.21
2023-04-07T06:08:52.072Z,49.14
2023-04-07T06:09:52.048Z,51.07
2023-04-07T06:10:52.066Z,48.50
2023-04-07T06:11:52.040Z,48.56
2023-04-07T06:12:52.057Z,51.11
2023-04-07T06:13:52.006Z,48.65
2023-04-07T06:14:52.026Z,47.99
2023-04-07T06:15:51.982Z,54.36
2023-04-07T06:16:52.080Z,51.39
2023-04-07T06:17:52.032Z,53.19
2023-04-07T06:18:51.977Z,50.82
2023-04-07T06:19:51.946Z,50.18
2023-04-07T06:20:51.944Z,50.95
2023-04-07T06:21:51.934Z,53.71
2023-04-07T06:22:51.935Z,51.07
2023-04-07T06:23:52.117Z,51.82
2023-04-07T06:24:51.902Z,52.96
2023-04-07T06:25:51.911Z,54.43
2023-04-07T06:26:51.876Z,53.28
2023-04-07T06:27:51.890Z,52.42
2023-04-07T06:28:51.857Z,48.31
2023-04-07T06:29:51.878Z,49.01
2023-04-07T06:30:51.872Z,49.94
2023-04-07T06:31:51.834Z,52.43
2023-04-07T06:32:51.853Z,47.43
2023-04-07T06:33:51.815Z,48.49
2023-04-07T06:34:51.813Z,49.66
2023-04-07T06:35:51.821Z,47.52
2023-04-07T06:36:51.823Z,51.64
2023-04-07T06:37:51.774Z,50.13
2023-04-07T06:38:51.749Z,51.78
2023-04-07T06:39:51.736Z,50.49
2023-04-07T06:40:51.737Z,53.00
2023-04-07T06:41:51.723Z,49.48
2023-04-07T06:42:51.725Z,50.86
2023-04-07T06:43:51.714Z,49.06
2023-04-07T06:44:51.718Z,52.07
2023-04-07T06:45:51.724Z,51.60
2023-04-07T06:46:51.684Z,48.83
2023-04-07T06:47:51.731Z,46.23
2023-04-07T06:48:51.686Z,46.94
2023-04-07T06:49:51.651Z,47.99
2023-04-07T06:50:51.809Z,45.28
2023-04-07T06:51:51.613Z,45.88
2023-04-07T06:52:51.703Z,44.03
2023-04-07T06:53:51.722Z,46.38
2023-04-07T06:54:51.619Z,43.44
2023-04-07T06:55:51.579Z,45.01
2023-04-07T06:56:53.484Z,50.04
2023-04-07T06:57:51.580Z,50.97
2023-04-07T06:58:52.292Z,46.31
2023-04-07T06:59:51.546Z,47.10
2023-04-07T07:00:51.528Z,44.44
2023-04-07T07:01:51.620Z,44.97
2023-04-07T07:02:51.689Z,49.36
2023-04-07T07:03:52.215Z,48.34
2023-04-07T07:04:52.767Z,48.97
2023-04-07T07:05:51.516Z,44.74
2023-04-07T07:06:51.517Z,44.22
2023-04-07T07:07:51.474Z,44.49
2023-04-07T07:08:51.474Z,45.87
2023-04-07T07:09:51.437Z,45.96
2023-04-07T07:10:51.445Z,49.82
2023-04-07T07:11:51.414Z,49.68
2023-04-07T07:12:51.438Z,48.52
2023-04-07T07:13:51.414Z,51.62
2023-04-07T07:14:51.397Z,46.70
2023-04-07T07:15:51.452Z,50.55
2023-04-07T07:16:51.380Z,48.16
2023-04-07T07:17:51.472Z,50.29
2023-04-07T07:18:52.802Z,45.54
2023-04-07T07:19:51.336Z,48.62
2023-04-07T07:20:51.332Z,53.44
2023-04-07T07:21:51.345Z,47.16
2023-04-07T07:22:51.348Z,47.21
2023-04-07T07:23:51.300Z,51.73
2023-04-07T07:24:51.293Z,50.47
2023-04-07T07:25:51.295Z,52.30
2023-04-07T07:26:51.260Z,50.14
2023-04-07T07:27:51.252Z,48.48
2023-04-07T07:28:51.303Z,48.30
2023-04-07T07:29:51.240Z,52.86
2023-04-07T07:30:51.260Z,50.03
2023-04-07T07:31:51.210Z,55.40
2023-04-07T07:32:51.323Z,51.67
2023-04-07T07:33:51.232Z,54.63
2023-04-07T07:34:51.305Z,52.42
2023-04-07T07:35:51.181Z,51.74
2023-04-07T07:36:51.181Z,54.10
2023-04-07T07:37:51.163Z,52.64
2023-04-07T07:38:51.160Z,46.79
2023-04-07T07:39:51.196Z,50.31
2023-04-07T07:40:51.165Z,51.44
2023-04-07T07:41:51.166Z,51.27
2023-04-07T07:42:51.103Z,47.93
2023-04-07T07:43:51.153Z,48.01
2023-04-07T07:44:51.112Z,51.53
2023-04-07T07:45:51.090Z,50.62
2023-04-07T07:46:51.315Z,48.86
2023-04-07T07:47:51.190Z,52.33
2023-04-07T07:48:51.074Z,50.90
2023-04-07T07:49:51.073Z,50.89
2023-04-07T07:50:51.029Z,55.73
2023-04-07T07:51:51.026Z,51.93
2023-04-07T07:52:51.015Z,53.76
2023-04-07T07:53:51.029Z,52.27
2023-04-07T07:54:51.018Z,50.10
2023-04-07T07:55:50.996Z,51.96
2023-04-07T07:56:50.995Z,54.51
2023-04-07T07:57:50.969Z,52.29
2023-04-07T07:58:50.974Z,52.44
2023-04-07T07:59:50.937Z,50.57
2023-04-07T08:00:50.968Z,53.05
2023-04-07T08:01:51.052Z,54.74
2023-04-07T08:02:50.998Z,49.08
2023-04-07T08:03:51.390Z,47.54
2023-04-07T08:04:50.934Z,48.88
2023-04-07T08:05:50.908Z,48.51
2023-04-07T08:06:50.871Z,46.15
2023-04-07T08:07:52.813Z,51.11
2023-04-07T08:08:50.863Z,44.26
2023-04-07T08:09:50.843Z,45.40
2023-04-07T08:10:50.862Z,49.54
2023-04-07T08:11:50.835Z,47.08
2023-04-07T08:12:50.832Z,44.28
2023-04-07T08:13:50.826Z,51.03
2023-04-07T08:14:50.785Z,51.38
2023-04-07T08:15:50.834Z,47.87
2023-04-07T08:16:50.771Z,45.01
2023-04-07T08:17:50.810Z,44.93
2023-04-07T08:18:50.775Z,48.10
2023-04-07T08:19:50.745Z,49.86
2023-04-07T08:20:50.725Z,48.07
2023-04-07T08:21:50.720Z,44.96
2023-04-07T08:22:50.718Z,46.48
2023-04-07T08:23:50.976Z,46.00
2023-04-07T08:24:50.788Z,50.80
2023-04-07T08:25:50.690Z,48.01
2023-04-07T08:26:50.673Z,51.67
2023-04-07T08:27:50.659Z,48.98
2023-04-07T08:28:50.663Z,46.87
2023-04-07T08:29:50.642Z,48.17
2023-04-07T08:30:50.643Z,51.87
2023-04-07T08:31:50.665Z,48.50
2023-04-07T08:32:50.763Z,49.08
2023-04-07T08:33:50.735Z,51.55
2023-04-07T08:34:50.588Z,50.44
2023-04-07T08:35:50.608Z,48.37
2023-04-07T08:36:50.563Z,50.47
2023-04-07T08:37:50.575Z,47.28
2023-04-07T08:38:50.610Z,48.12
2023-04-07T08:39:50.540Z,47.04
2023-04-07T08:40:50.528Z,49.20
2023-04-07T08:41:50.523Z,49.36
2023-04-07T08:42:50.512Z,50.42
2023-04-07T08:43:50.610Z,53.19
2023-04-07T08:44:50.513Z,53.08
2023-04-07T08:45:51.768Z,55.08
2023-04-07T08:46:50.522Z,54.38
2023-04-07T08:47:50.529Z,52.04
2023-04-07T08:48:50.482Z,50.90
2023-04-07T08:49:50.477Z,49.64
2023-04-07T08:50:50.444Z,49.76
2023-04-07T08:51:50.470Z,50.83
2023-04-07T08:52:50.414Z,48.53
2023-04-07T08:53:50.468Z,45.49
2023-04-07T08:54:50.383Z,44.25
2023-04-07T08:55:50.453Z,47.86
2023-04-07T08:56:50.394Z,44.99
2023-04-07T08:57:51.343Z,48.26
2023-04-07T08:58:50.364Z,43.75
2023-04-07T08:59:50.349Z,45.60
2023-04-07T09:00:50.334Z,47.22
2023-04-07T09:01:51.390Z,47.24
2023-04-07T09:02:50.370Z,44.74
2023-04-07T09:03:50.426Z,45.62
2023-04-07T09:04:50.275Z,49.55
2023-04-07T09:05:50.312Z,48.52
2023-04-07T09:06:50.281Z,50.51
2023-04-07T09:07:50.254Z,44.06
2023-04-07T09:08:50.312Z,45.91
2023-04-07T09:09:50.215Z,47.43
2023-04-07T09:10:50.259Z,48.12
2023-04-07T09:11:50.212Z,46.00
2023-04-07T09:12:50.175Z,47.89
2023-04-07T09:13:50.179Z,44.85
2023-04-07T09:14:50.157Z,48.39
2023-04-07T09:15:50.134Z,47.48
2023-04-07T09:16:50.165Z,44.19
2023-04-07T09:17:50.135Z,44.65
2023-04-07T09:18:50.128Z,46.82
2023-04-07T09:19:50.088Z,49.52
2023-04-07T09:20:50.076Z,44.20
2023-04-07T09:21:50.162Z,47.57
2023-04-07T09:22:50.533Z,43.58
2023-04-07T09:26:16.162Z,44.66
2023-04-07T09:27:16.924Z,45.06
2023-04-07T09:28:16.156Z,43.46
2023-04-07T09:29:16.152Z,48.36
2023-04-07T09:30:16.118Z,47.65
2023-04-07T09:31:16.116Z,48.45
2023-04-07T09:32:16.205Z,46.60
2023-04-07T09:33:16.090Z,45.99
2023-04-07T09:34:16.081Z,48.19
2023-04-07T09:35:16.069Z,49.29
2023-04-07T09:36:16.114Z,44.57
2023-04-07T09:37:16.058Z,46.63
2023-04-07T09:38:16.044Z,45.52
2023-04-07T09:39:16.036Z,50.47
2023-04-07T09:40:16.008Z,48.52
2023-04-07T09:41:16.047Z,51.00
2023-04-07T09:42:15.991Z,43.32
2023-04-07T09:43:15.980Z,43.18
2023-04-07T09:44:15.976Z,48.35
2023-04-07T09:45:23.992Z,48.54
2023-04-07T09:46:16.968Z,45.54
2023-04-07T09:47:15.955Z,48.45
2023-04-07T09:48:15.926Z,45.15
2023-04-07T09:49:15.924Z,46.55
2023-04-07T09:50:15.901Z,46.54
2023-04-07T09:51:15.898Z,49.49
2023-04-07T09:52:15.884Z,43.10
2023-04-07T09:53:15.877Z,42.92
2023-04-07T09:54:15.871Z,50.21
2023-04-07T09:55:15.853Z,48.61
2023-04-07T09:56:15.844Z,46.37
2023-04-07T09:57:15.827Z,46.90
2023-04-07T09:58:15.816Z,44.02
2023-04-07T09:59:15.832Z,43.00
2023-04-07T10:00:15.793Z,47.09
2023-04-07T10:01:15.836Z,44.06
2023-04-07T10:02:15.785Z,44.21
2023-04-07T10:03:15.813Z,43.42
2023-04-07T10:04:15.822Z,43.11
2023-04-07T10:05:15.766Z,50.89
2023-04-07T10:06:15.742Z,46.89
2023-04-07T10:07:15.719Z,46.78
2023-04-07T10:08:15.708Z,49.75
2023-04-07T10:09:15.710Z,50.36
2023-04-07T10:10:15.684Z,45.39
2023-04-07T10:11:15.682Z,47.09
2023-04-07T10:12:15.668Z,48.83
2023-04-07T10:13:15.659Z,49.29
2023-04-07T10:14:15.657Z,46.13
2023-04-07T10:15:15.700Z,44.75
2023-04-07T10:16:15.649Z,47.99
2023-04-07T10:17:15.621Z,47.36
2023-04-07T10:18:15.606Z,48.32
2023-04-07T10:19:15.639Z,45.54
2023-04-07T10:20:15.583Z,47.06
2023-04-07T10:21:15.592Z,47.40
2023-04-07T10:22:15.582Z,44.19
2023-04-07T10:23:15.557Z,44.38
2023-04-07T10:24:15.561Z,47.71
2023-04-07T10:25:15.537Z,47.15
2023-04-07T10:26:15.543Z,47.53
2023-04-07T10:27:15.522Z,45.16
2023-04-07T10:28:15.506Z,53.79
2023-04-07T10:29:15.528Z,49.13
2023-04-07T10:30:15.480Z,43.66
2023-04-07T10:31:15.506Z,47.36
2023-04-07T10:32:15.463Z,42.29
2023-04-07T10:33:15.457Z,47.72
2023-04-07T10:34:15.459Z,47.61
2023-04-07T10:35:15.446Z,44.02
2023-04-07T10:36:15.422Z,41.94
2023-04-07T10:37:15.411Z,43.67
2023-04-07T10:38:15.430Z,45.25
2023-04-07T10:39:15.408Z,44.08
2023-04-07T10:40:15.383Z,46.33
2023-04-07T10:41:15.372Z,45.38
2023-04-07T10:42:15.361Z,46.82
2023-04-07T10:43:15.360Z,46.05
2023-04-07T10:44:15.351Z,50.38
2023-04-07T10:45:15.341Z,44.80
2023-04-07T10:46:15.322Z,47.51
2023-04-07T10:47:15.324Z,42.98
2023-04-07T10:48:15.301Z,47.29
2023-04-07T10:49:17.768Z,46.96
2023-04-07T10:50:15.290Z,46.79
2023-04-07T10:51:15.275Z,44.68
2023-04-07T10:52:15.275Z,45.01
2023-04-07T10:53:15.309Z,42.81
2023-04-07T10:54:15.242Z,47.09
2023-04-07T10:55:15.244Z,49.14
2023-04-07T10:56:15.218Z,46.29
2023-04-07T10:57:15.282Z,45.70
2023-04-07T10:58:15.202Z,48.51
2023-04-07T10:59:15.521Z,50.24
2023-04-07T11:00:15.977Z,47.27
2023-04-07T11:06:34.787Z,44.25
2023-04-07T11:07:33.552Z,47.94
2023-04-07T11:08:34.302Z,52.48
2023-04-07T11:09:33.134Z,48.85
2023-04-07T11:10:33.081Z,50.15
2023-04-07T11:11:33.070Z,43.18
2023-04-07T11:12:33.177Z,48.62
2023-04-07T11:13:36.169Z,47.43
2023-04-07T11:14:33.085Z,44.60
2023-04-07T11:15:33.129Z,44.12
2023-04-07T11:16:33.114Z,43.61
2023-04-07T11:17:34.680Z,42.88
2023-04-07T11:18:33.979Z,44.13
2023-04-07T11:19:33.089Z,42.91
2023-04-07T11:39:22.312Z,44.16
2023-04-07T11:56:19.072Z,41.43
2023-04-07T11:57:18.874Z,44.23
2023-04-07T11:58:18.888Z,43.75
2023-04-07T11:59:18.879Z,45.04
2023-04-07T12:00:18.870Z,42.28
2023-04-07T12:01:18.832Z,49.79
2023-04-07T12:02:18.853Z,51.28
2023-04-07T12:03:19.273Z,53.49
2023-04-07T12:04:18.976Z,54.82
2023-04-07T12:05:20.363Z,52.35
2023-04-07T12:06:18.783Z,48.50
2023-04-07T12:07:18.777Z,46.60
2023-04-07T12:08:18.792Z,43.68
2023-04-07T12:09:18.760Z,45.68
2023-04-07T12:10:18.794Z,45.83
2023-04-07T12:11:18.743Z,42.81
2023-04-07T12:12:18.731Z,41.58
2023-04-07T12:13:18.732Z,46.57
2023-04-07T12:14:18.701Z,46.05
2023-04-07T12:15:18.709Z,41.79
2023-04-07T12:16:18.726Z,45.51
2023-04-07T12:17:18.736Z,45.51
2023-04-07T12:18:18.658Z,45.45
2023-04-07T12:19:21.483Z,44.74
2023-04-07T12:20:18.637Z,46.83
2023-04-07T12:21:18.650Z,47.20
2023-04-07T12:22:18.620Z,50.58
2023-04-07T12:23:18.612Z,52.41
2023-04-07T12:24:18.605Z,53.51
2023-04-07T12:25:18.610Z,44.63
2023-04-07T12:26:19.008Z,47.84
2023-04-07T12:27:18.587Z,51.27
2023-04-07T12:28:18.560Z,50.25
2023-04-07T12:29:18.559Z,47.79
2023-04-07T12:30:18.547Z,48.03
2023-04-07T12:31:18.571Z,47.45
2023-04-07T12:32:18.586Z,49.83
2023-04-07T12:33:18.508Z,48.22
2023-04-07T12:34:18.501Z,41.87
2023-04-07T12:35:18.487Z,44.76
2023-04-07T12:36:18.493Z,45.22
2023-04-07T12:37:18.481Z,44.27
2023-04-07T12:38:18.451Z,48.62
2023-04-07T12:39:18.446Z,45.00
2023-04-07T12:40:18.485Z,41.63
2023-04-07T12:41:18.457Z,44.39
2023-04-07T12:42:18.409Z,44.97
2023-04-07T12:43:18.403Z,42.79
2023-04-07T12:44:18.409Z,43.25
2023-04-07T12:45:18.382Z,46.02
2023-04-07T12:46:18.394Z,41.00
2023-04-07T12:47:18.359Z,51.82
2023-04-07T12:48:18.347Z,45.16
2023-04-07T12:49:18.345Z,45.49
2023-04-07T12:50:18.333Z,42.31
2023-04-07T12:51:18.332Z,46.42
2023-04-07T12:52:18.304Z,42.83
2023-04-07T12:53:18.302Z,49.36
2023-04-07T12:54:18.285Z,43.16
2023-04-07T12:55:18.270Z,45.63
2023-04-07T12:56:18.279Z,50.10
2023-04-07T12:57:18.259Z,47.78
2023-04-07T12:58:18.244Z,45.78
2023-04-07T12:59:18.234Z,43.24
2023-04-07T13:00:18.239Z,45.24
2023-04-07T13:01:18.292Z,44.57
2023-04-07T13:02:18.353Z,48.99
2023-04-07T13:03:18.311Z,50.00
2023-04-07T13:04:18.340Z,48.62
2023-04-07T13:05:18.166Z,45.41
2023-04-07T13:06:18.180Z,44.25
2023-04-07T13:07:18.145Z,46.56
2023-04-07T13:08:18.134Z,46.00
2023-04-07T13:09:18.120Z,50.67
2023-04-07T13:10:18.122Z,40.84
2023-04-07T13:11:18.113Z,40.35
2023-04-07T13:12:18.130Z,41.40
2023-04-07T13:13:18.079Z,39.96
2023-04-07T13:14:18.071Z,41.33
2023-04-07T13:15:18.061Z,46.49
2023-04-07T13:16:18.068Z,40.83
2023-04-07T13:17:18.038Z,38.27
2023-04-07T13:18:18.027Z,38.74
2023-04-07T13:19:18.036Z,47.60
2023-04-07T13:20:20.167Z,41.08
2023-04-07T13:22:21.619Z,44.96
2023-04-07T13:23:18.728Z,39.85
2023-04-07T13:24:17.982Z,40.99
2023-04-07T13:25:17.966Z,41.58
2023-04-07T13:26:17.954Z,39.86
2023-04-07T13:27:17.957Z,37.85
2023-04-07T13:28:17.930Z,48.45
2023-04-07T13:29:17.915Z,39.42
2023-04-07T13:30:17.905Z,46.60
2023-04-07T13:31:17.970Z,45.56
2023-04-07T13:32:17.910Z,41.82
2023-04-07T13:33:17.873Z,37.34
2023-04-07T13:34:17.861Z,44.16
2023-04-07T13:35:17.850Z,41.48
2023-04-07T13:36:17.903Z,39.82